Time;durP1;ratioP1;P1;durP2;ratioP2;P2;SDS_P1;SDS_P2;PMS_P1;PMS_P2;Temp;Humidity;BMP_temperature;BMP_pressure;BME280_temperature;BME280_humidity;BME280_pressure;Samples;Min_cycle;Max_cycle;Signal;HPM_P1;HPM_P2
2021/09/24 03:15:20;;;;;;;;;;;;;;;10.35;81.63;99866.22;5863378;22;19932;-79
2021/09/24 03:17:45;;;;;;;;;;;;;;;10.47;81.74;99871.94;5090665;28;19920;-83
2021/09/24 03:20:11;;;;;;;;;;;;;;;10.35;80.25;99868.00;5074379;28;19932;-87
2021/09/24 03:22:36;;;;;;;;;;;;;;;10.18;80.09;99861.56;5066196;28;20350;-78
2021/09/24 03:25:02;;;;;;;;;;;;;;;10.25;80.60;99867.47;5092559;28;19923;-86
2021/09/24 03:27:27;;;;;;;;;;;;;;;10.28;80.27;99867.34;5074304;28;20390;-83
2021/09/24 03:29:52;;;;;;;;;;;;;;;10.49;79.99;99867.44;5091182;28;19983;-87
2021/09/24 03:32:20;;;;;;;;;;;;;;;10.22;79.61;99861.44;5092483;28;19919;-80
2021/09/24 03:34:46;;;;;;;;;;;;;;;10.24;80.17;99868.38;5073891;28;19920;-79
2021/09/24 03:37:11;;;;;;;;;;;;;;;10.15;80.26;99867.00;5092785;28;20247;-81
2021/09/24 03:39:36;;;;;;;;;;;;;;;10.15;80.56;99876.72;5092254;28;20324;-79
2021/09/24 03:42:02;;;;;;;;;;;;;;;10.24;80.86;99865.75;5073639;28;19920;-79
2021/09/24 03:44:27;;;;;;;;;;;;;;;10.24;80.17;99863.09;5090828;28;19920;-79
2021/09/24 03:46:52;;;;;;;;;;;;;;;10.29;80.61;99862.91;5062027;28;19916;-78
2021/09/24 03:49:17;;;;;;;;;;;;;;;10.37;79.72;99860.88;5086517;28;19924;-79
2021/09/24 03:51:43;;;;;;;;;;;;;;;10.23;80.49;99871.09;5092193;28;19939;-85
2021/09/24 03:54:08;;;;;;;;;;;;;;;10.23;79.97;99864.03;5074098;28;19967;-79
2021/09/24 03:56:33;;;;;;;;;;;;;;;10.24;79.73;99864.88;5092179;28;19938;-79
2021/09/24 03:58:58;;;;;;;;;;;;;;;10.21;79.83;99870.31;5073052;28;19919;-79
2021/09/24 04:01:24;;;;;;;;;;;;;;;10.19;80.14;99867.72;5091561;28;19969;-81
2021/09/24 04:03:49;;;;;;;;;;;;;;;10.25;80.65;99872.78;5091920;28;20008;-79
2021/09/24 04:06:14;;;;;;;;;;;;;;;10.27;79.32;99870.06;5091155;28;19917;-78
2021/09/24 04:08:39;;;;;;;;;;;;;;;10.22;79.50;99862.31;5065779;28;19920;-79
2021/09/24 04:11:05;;;;;;;;;;;;;;;10.12;80.13;99866.25;5092076;28;19950;-79
2021/09/24 04:13:30;;;;;;;;;;;;;;;10.14;80.48;99865.25;5091762;28;19924;-78
2021/09/24 04:15:55;;;;;;;;;;;;;;;10.16;80.32;99858.13;5089599;28;19934;-80
2021/09/24 04:18:20;;;;;;;;;;;;;;;10.21;80.26;99862.38;5091845;28;19972;-81
2021/09/24 04:20:47;;;;;;;;;;;;;;;10.13;80.13;99858.25;5091926;28;19920;-80
2021/09/24 04:23:12;;;;;;;;;;;;;;;10.21;80.38;99851.78;5073655;28;20404;-78
2021/09/24 04:25:38;;;;;;;;;;;;;;;10.28;79.94;99853.25;5091847;28;19920;-79
2021/09/24 04:28:03;;;;;;;;;;;;;;;10.22;79.96;99846.41;5091534;28;19942;-86
2021/09/24 04:30:28;;;;;;;;;;;;;;;10.18;80.12;99850.97;5090529;28;19927;-80
2021/09/24 04:32:54;;;;;;;;;;;;;;;10.23;80.16;99845.50;5091678;28;20011;-78
2021/09/24 04:35:20;;;;;;;;;;;;;;;10.25;80.07;99851.59;5091828;28;20006;-80
2021/09/24 04:37:45;;;;;;;;;;;;;;;10.26;79.76;99857.72;5073235;28;19982;-79
2021/09/24 07:42:43;;;;;;;;;;;;;;;10.34;80.20;99898.94;5613147;22;19928;-84
2021/09/24 07:45:08;;;;;;;;;;;;;;;10.27;80.24;99896.53;5065912;28;19920;-79
2021/09/24 07:47:34;;;;;;;;;;;;;;;10.30;80.26;99899.94;5088143;28;19916;-81
2021/09/24 07:50:00;;;;;;;;;;;;;;;10.33;80.60;99902.50;5073358;28;19917;-80
2021/09/24 07:52:25;;;;;;;;;;;;;;;10.37;80.57;99900.59;5073007;28;19962;-83
2021/09/24 07:54:51;;;;;;;;;;;;;;;10.32;80.71;99895.47;5073130;28;19946;-87
2021/09/24 07:57:16;;;;;;;;;;;;;;;10.46;80.41;99905.50;5083711;28;19920;-84
2021/09/24 07:59:42;;;;;;;;;;;;;;;10.41;80.51;99898.69;5072959;28;20414;-84
2021/09/24 08:02:08;;;;;;;;;;;;;;;10.40;80.80;99899.59;5089750;28;19924;-78
2021/09/24 08:04:33;;;;;;;;;;;;;;;10.39;81.11;99898.75;5091361;28;19923;-77
2021/09/24 08:06:58;;;;;;;;;;;;;;;10.34;81.15;99893.63;5091136;28;19924;-78
2021/09/24 08:09:23;;;;;;;;;;;;;;;10.34;81.71;99890.13;5091137;28;19923;-87
2021/09/24 08:11:49;;;;;;;;;;;;;;;10.38;82.24;99888.22;5089808;28;20011;-80
2021/09/24 08:14:14;;;;;;;;;;;;;;;10.37;81.78;99887.34;5091231;28;19920;-77
2021/09/24 08:16:39;;;;;;;;;;;;;;;10.48;80.57;99894.84;5091300;28;19916;-78
2021/09/24 08:19:05;;;;;;;;;;;;;;;10.48;81.24;99885.13;5090919;28;20256;-78
2021/09/24 08:21:30;;;;;;;;;;;;;;;10.47;83.41;99890.50;5073012;28;19920;-86
2021/09/24 08:23:55;;;;;;;;;;;;;;;10.45;81.50;99894.97;5072777;28;20018;-80
2021/09/24 08:26:21;;;;;;;;;;;;;;;10.62;81.00;99879.25;5089735;28;19923;-86
2021/09/24 08:28:46;;;;;;;;;;;;;;;10.46;81.32;99888.75;5093858;28;20019;-85
2021/09/24 08:31:12;;;;;;;;;;;;;;;10.48;81.64;99887.78;5094367;28;20363;-78
2021/09/24 08:33:38;;;;;;;;;;;;;;;10.48;82.47;99879.84;5094543;28;19927;-78
2021/09/24 08:36:03;;;;;;;;;;;;;;;10.52;82.46;99880.56;5094364;28;20319;-77
2021/09/24 08:38:28;;;;;;;;;;;;;;;10.49;82.03;99880.69;5076190;28;19951;-78
2021/09/24 08:40:54;;;;;;;;;;;;;;;10.59;82.36;99882.00;5094281;28;19915;-85
2021/09/24 08:43:19;;;;;;;;;;;;;;;10.52;81.99;99885.88;5008899;28;1869335;-86
2021/09/24 08:45:46;;;;;;;;;;;;;;;10.48;83.65;99885.13;5095636;28;19920;-85
2021/09/24 08:48:12;;;;;;;;;;;;;;;10.49;83.17;99885.97;5095564;28;20324;-79
2021/09/24 08:50:39;;;;;;;;;;;;;;;10.51;82.49;99879.72;5094685;28;19920;-78
2021/09/24 08:53:05;;;;;;;;;;;;;;;10.53;84.11;99884.94;5093521;28;19974;-79
2021/09/24 08:55:31;;;;;;;;;;;;;;;10.68;85.56;99876.34;5077088;28;19916;-78
2021/09/24 08:57:57;;;;;;;;;;;;;;;10.61;82.53;99879.31;5093198;28;19916;-85
2021/09/24 09:00:22;;;;;;;;;;;;;;;10.70;82.70;99878.94;5095271;28;19923;-79
2021/09/24 09:02:52;;;;;;;;;;;;;;;10.58;82.15;99872.38;5076846;28;20259;-81
2021/09/24 09:05:17;;;;;;;;;;;;;;;10.67;82.09;99869.34;5086954;28;20026;-78
2021/09/24 09:07:45;;;;;;;;;;;;;;;10.61;83.17;99874.88;5076765;28;19998;-79
2021/09/24 09:10:10;;;;;;;;;;;;;;;10.54;83.16;99870.75;5076819;28;19920;-79
2021/09/24 09:12:36;;;;;;;;;;;;;;;10.58;83.86;99867.06;5093514;28;19916;-78
2021/09/24 09:15:03;;;;;;;;;;;;;;;10.65;83.06;99875.63;5095068;28;19970;-79
2021/09/24 09:17:29;;;;;;;;;;;;;;;10.64;83.26;99864.16;5076216;28;20370;-78
2021/09/24 09:20:33;;;;;;;;;;;;;;;10.88;83.35;99864.91;5076769;28;19916;-80
2021/09/24 09:22:58;;;;;;;;;;;;;;;10.97;84.14;99866.28;5042169;28;20446;-78
2021/09/24 09:25:23;;;;;;;;;;;;;;;11.22;82.36;99865.22;5095084;28;19920;-79
2021/09/24 09:27:49;;;;;;;;;;;;;;;11.09;81.06;99868.41;5075411;28;19916;-78
2021/09/24 09:30:15;;;;;;;;;;;;;;;10.98;83.61;99864.53;5094854;28;19916;-78
2021/09/24 09:32:45;;;;;;;;;;;;;;;10.90;83.09;99864.84;5076605;28;19920;-82
2021/09/24 09:35:10;;;;;;;;;;;;;;;10.98;83.14;99860.06;5092766;28;19916;-80
2021/09/24 09:37:36;;;;;;;;;;;;;;;11.04;83.30;99854.50;5076553;28;20362;-79
2021/09/24 09:40:13;;;;;;;;;;;;;;;11.04;83.87;99864.22;5093639;28;19942;-78
2021/09/24 09:42:39;;;;;;;;;;;;;;;10.81;84.74;99854.63;5093102;28;19920;-80
2021/09/24 09:45:06;;;;;;;;;;;;;;;10.84;84.52;99858.00;5094510;28;19924;-84
2021/09/24 09:47:32;;;;;;;;;;;;;;;10.84;85.22;99858.00;5094467;28;19958;-79
2021/09/24 09:50:08;;;;;;;;;;;;;;;11.00;84.38;99854.69;5094338;28;20286;-82
2021/09/24 09:52:34;;;;;;;;;;;;;;;10.84;84.98;99854.50;5093430;28;19942;-82
2021/09/24 09:55:03;;;;;;;;;;;;;;;10.94;84.92;99853.16;5094631;28;20409;-86
2021/09/24 09:57:33;;;;;;;;;;;;;;;11.00;85.12;99847.59;5092817;28;19923;-81
2021/09/24 09:59:58;;;;;;;;;;;;;;;10.90;85.56;99848.94;5093989;28;19915;-83
2021/09/24 10:02:33;;;;;;;;;;;;;;;10.93;85.50;99855.88;5076163;28;19920;-79
2021/09/24 10:05:01;;;;;;;;;;;;;;;10.88;86.03;99848.13;5093959;28;19916;-80
2021/09/24 10:07:27;;;;;;;;;;;;;;;10.94;87.78;99857.63;5094184;28;20034;-86
2021/09/24 10:10:11;;;;;;;;;;;;;;;11.05;86.09;99850.91;5094109;28;19954;-86
2021/09/24 10:12:37;;;;;;;;;;;;;;;11.09;85.87;99851.66;5092638;28;19920;-85
2021/09/24 10:15:03;;;;;;;;;;;;;;;11.11;84.85;99852.44;5093107;28;20454;-83
2021/09/24 10:17:28;;;;;;;;;;;;;;;10.99;85.42;99859.16;5093781;28;19916;-87
2021/09/24 10:19:54;;;;;;;;;;;;;;;10.89;86.22;99853.34;5093892;28;19920;-85
2021/09/24 10:22:20;;;;;;;;;;;;;;;11.16;86.43;99861.03;5093954;28;20312;-83
2021/09/24 10:24:46;;;;;;;;;;;;;;;10.93;86.15;99854.09;5093801;28;19927;-87
2021/09/24 10:27:15;;;;;;;;;;;;;;;11.38;85.11;99854.78;5092064;28;20398;-81
2021/09/24 10:29:42;;;;;;;;;;;;;;;11.49;83.55;99848.97;5093682;28;20247;-88
2021/09/24 10:32:13;;;;;;;;;;;;;;;11.42;82.58;99854.59;5093480;28;19924;-82
2021/09/24 10:35:11;;;;;;;;;;;;;;;11.45;86.54;99857.09;5075112;28;20186;-82
2021/09/24 10:37:37;;;;;;;;;;;;;;;11.38;83.87;99855.66;5036912;28;19920;-88
2021/09/24 10:40:04;;;;;;;;;;;;;;;11.31;84.57;99848.88;5093210;28;20346;-81
2021/09/24 10:42:35;;;;;;;;;;;;;;;11.42;83.42;99843.09;5086980;28;19971;-85
2021/09/24 10:45:19;;;;;;;;;;;;;;;11.52;83.49;99854.16;5091873;28;19938;-88
2021/09/24 10:47:49;;;;;;;;;;;;;;;11.19;86.76;99850.31;5093656;28;19916;-88
2021/09/24 10:50:33;;;;;;;;;;;;;;;11.14;85.11;99848.81;5074790;28;19916;-82
2021/09/24 10:53:08;;;;;;;;;;;;;;;11.22;84.05;99846.66;5092684;28;19923;-85
2021/09/24 10:55:33;;;;;;;;;;;;;;;11.34;84.16;99843.44;5093088;28;20401;-85
2021/09/24 10:58:00;;;;;;;;;;;;;;;11.32;83.68;99847.09;5091823;28;19916;-82
2021/09/24 11:00:27;;;;;;;;;;;;;;;11.20;86.57;99841.44;5092168;28;19923;-82
2021/09/24 11:03:08;;;;;;;;;;;;;;;11.29;86.58;99837.50;5091539;28;20417;-80
2021/09/24 11:05:52;;;;;;;;;;;;;;;11.30;85.48;99838.38;5092801;28;20003;-81
2021/09/24 11:08:37;;;;;;;;;;;;;;;11.44;83.72;99836.81;5074906;28;19924;-80
2021/09/24 11:11:22;;;;;;;;;;;;;;;11.40;83.93;99835.22;5076601;28;20394;-83
2021/09/24 11:13:52;;;;;;;;;;;;;;;11.34;84.32;99826.66;5073867;28;20401;-80
2021/09/24 11:16:18;;;;;;;;;;;;;;;11.35;84.28;99829.25;5090632;28;19920;-88
2021/09/24 11:18:53;;;;;;;;;;;;;;;11.31;83.99;99824.16;5091397;28;20281;-87
2021/09/24 11:21:18;;;;;;;;;;;;;;;11.37;83.63;99816.78;5090639;28;19926;-81
2021/09/24 11:23:44;;;;;;;;;;;;;;;11.58;83.01;99816.72;5092651;28;19999;-84
2021/09/24 11:26:11;;;;;;;;;;;;;;;11.33;82.33;99815.22;5074378;28;19924;-83
2021/09/24 11:28:37;;;;;;;;;;;;;;;11.31;83.68;99817.03;5091274;28;20322;-87
2021/09/24 11:31:02;;;;;;;;;;;;;;;11.29;84.58;99813.63;5092793;28;20002;-88
2021/09/24 11:33:38;;;;;;;;;;;;;;;11.39;90.25;99814.06;5084227;28;19916;-84
2021/09/24 11:36:03;;;;;;;;;;;;;;;11.21;87.00;99813.09;5092072;28;20002;-81
2021/09/24 11:38:29;;;;;;;;;;;;;;;11.11;85.39;99809.16;5092524;28;20011;-82
2021/09/24 11:40:58;;;;;;;;;;;;;;;11.27;87.46;99811.03;5092360;28;19920;-82
2021/09/24 11:43:24;;;;;;;;;;;;;;;11.35;88.19;99808.03;5069305;28;20023;-82
2021/09/24 11:45:49;;;;;;;;;;;;;;;11.38;86.93;99807.91;5072105;28;20414;-80
2021/09/24 11:48:27;;;;;;;;;;;;;;;11.39;86.27;99809.63;5071927;28;19963;-80
2021/09/24 11:50:53;;;;;;;;;;;;;;;11.40;88.68;99803.38;5071481;28;19966;-84
2021/09/24 11:53:18;;;;;;;;;;;;;;;11.34;84.63;99801.00;5071672;28;19924;-86
2021/09/24 11:55:44;;;;;;;;;;;;;;;11.30;83.85;99802.09;5070534;28;19924;-85
2021/09/24 11:58:25;;;;;;;;;;;;;;;11.29;86.68;99805.66;5068513;28;20400;-85
2021/09/24 12:00:57;;;;;;;;;;;;;;;11.33;85.28;99799.28;5069840;28;19926;-80
2021/09/24 12:03:29;;;;;;;;;;;;;;;11.52;84.00;99806.38;5070704;28;19924;-81
2021/09/24 12:05:57;;;;;;;;;;;;;;;11.54;83.09;99801.91;5070481;28;19960;-80
2021/09/24 12:08:24;;;;;;;;;;;;;;;11.37;83.83;99795.56;5070437;28;19923;-80
2021/09/24 12:11:04;;;;;;;;;;;;;;;11.37;83.92;99800.84;5029082;28;19918;-80
2021/09/24 12:13:35;;;;;;;;;;;;;;;11.52;84.74;99790.47;5027713;28;19917;-85
2021/09/24 12:16:00;;;;;;;;;;;;;;;11.38;83.55;99791.97;5012983;28;19972;-80
2021/09/24 12:19:01;;;;;;;;;;;;;;;11.58;82.72;99782.22;5008654;28;19998;-79
2021/09/24 12:21:46;;;;;;;;;;;;;;;11.37;84.87;99776.97;4951421;29;20062;-80
2021/09/24 12:24:13;;;;;;;;;;;;;;;11.47;83.08;99790.69;5020986;28;20326;-79
2021/09/24 12:26:40;;;;;;;;;;;;;;;11.46;83.57;99783.66;5027952;28;19917;-85
2021/09/24 12:29:07;;;;;;;;;;;;;;;11.31;83.76;99793.19;5029260;28;20340;-80
2021/09/24 12:31:35;;;;;;;;;;;;;;;11.40;83.54;99787.44;5028600;28;19917;-80
2021/09/24 12:34:00;;;;;;;;;;;;;;;11.44;83.41;99783.75;5029340;28;19917;-80
2021/09/24 12:36:26;;;;;;;;;;;;;;;11.54;83.21;99780.66;5029223;28;19924;-82
2021/09/24 12:38:52;;;;;;;;;;;;;;;11.43;85.69;99778.50;5012853;28;19971;-80
2021/09/24 12:41:18;;;;;;;;;;;;;;;11.32;85.22;99771.03;5026198;28;19973;-87
2021/09/24 12:43:44;;;;;;;;;;;;;;;11.35;83.73;99770.91;5068021;28;19920;-79
2021/09/24 12:46:11;;;;;;;;;;;;;;;11.37;84.00;99769.03;5071573;28;19917;-79
2021/09/24 12:48:38;;;;;;;;;;;;;;;11.27;83.87;99765.94;5070267;28;19975;-80
2021/09/24 12:51:05;;;;;;;;;;;;;;;11.36;84.98;99761.13;5085795;28;20399;-79
2021/09/24 12:53:31;;;;;;;;;;;;;;;11.44;83.32;99759.00;5086810;28;20019;-80
2021/09/24 12:55:57;;;;;;;;;;;;;;;11.51;83.49;99748.97;5071457;28;20003;-87
2021/09/24 12:58:29;;;;;;;;;;;;;;;11.49;83.53;99756.13;5068728;28;19986;-86
2021/09/24 13:00:56;;;;;;;;;;;;;;;11.54;82.36;99735.56;5070412;28;19916;-81
2021/09/24 13:03:23;;;;;;;;;;;;;;;11.31;82.97;99736.63;5070980;28;19920;-80
2021/09/24 13:05:48;;;;;;;;;;;;;;;11.27;83.54;99730.59;5069891;28;19920;-83
2021/09/24 13:08:13;;;;;;;;;;;;;;;11.19;83.92;99732.75;5071200;28;20268;-79
2021/09/24 13:10:40;;;;;;;;;;;;;;;11.17;84.91;99734.59;5071260;28;19917;-80
2021/09/24 13:13:05;;;;;;;;;;;;;;;11.31;88.39;99732.16;5067800;28;20338;-87
2021/09/24 13:15:33;;;;;;;;;;;;;;;11.27;87.24;99726.16;5073692;28;20008;-81
2021/09/24 13:18:03;;;;;;;;;;;;;;;11.40;88.56;99721.13;5074728;28;19927;-80
2021/09/24 13:20:30;;;;;;;;;;;;;;;11.27;84.48;99718.19;5074291;28;19916;-79
2021/09/24 13:22:55;;;;;;;;;;;;;;;11.34;83.78;99708.16;5074757;28;19978;-80
2021/09/24 13:25:21;;;;;;;;;;;;;;;11.27;84.38;99720.84;5073234;28;19924;-80
2021/09/24 13:27:46;;;;;;;;;;;;;;;11.27;84.60;99718.19;5068900;28;19974;-81
2021/09/24 13:30:12;;;;;;;;;;;;;;;11.25;84.21;99713.91;5074427;28;20385;-84
2021/09/24 13:32:37;;;;;;;;;;;;;;;11.35;88.66;99703.72;5072406;28;20334;-80
2021/09/24 13:35:03;;;;;;;;;;;;;;;11.37;86.21;99705.34;5074523;28;19916;-79
2021/09/24 13:37:28;;;;;;;;;;;;;;;11.29;86.79;99707.50;5073055;28;19920;-87
2021/09/24 13:39:54;;;;;;;;;;;;;;;11.38;85.03;99696.47;5072969;28;19923;-86
2021/09/24 13:42:19;;;;;;;;;;;;;;;11.39;84.17;99695.56;5071913;28;19920;-81
2021/09/24 13:44:44;;;;;;;;;;;;;;;11.45;83.15;99697.91;5076527;28;19916;-80
2021/09/24 13:47:09;;;;;;;;;;;;;;;11.57;84.16;99688.50;5094532;28;19963;-81
2021/09/24 13:49:35;;;;;;;;;;;;;;;11.52;82.50;99679.03;5094367;28;19920;-80
2021/09/24 13:52:00;;;;;;;;;;;;;;;11.37;83.26;99677.97;5076272;28;20339;-79
2021/09/24 13:54:25;;;;;;;;;;;;;;;11.33;85.49;99681.69;5094832;28;20278;-79
2021/09/24 13:56:51;;;;;;;;;;;;;;;11.61;84.76;99678.59;5074883;28;19920;-82
2021/09/24 13:59:16;;;;;;;;;;;;;;;11.66;83.19;99679.22;5075788;28;19984;-86
2021/09/24 14:01:41;;;;;;;;;;;;;;;11.37;82.85;99678.81;5094266;28;19920;-86
2021/09/24 14:04:07;;;;;;;;;;;;;;;11.29;84.95;99675.69;5094094;28;20286;-85
2021/09/24 14:06:32;;;;;;;;;;;;;;;11.42;88.39;99676.84;5094029;28;19988;-84
2021/09/24 14:08:58;;;;;;;;;;;;;;;11.37;83.75;99670.88;5076033;28;20015;-81
2021/09/24 14:11:23;;;;;;;;;;;;;;;11.23;84.33;99665.38;5093765;28;19916;-79
2021/09/24 14:13:48;;;;;;;;;;;;;;;11.35;84.02;99670.09;5075007;28;20403;-81
2021/09/24 14:16:14;;;;;;;;;;;;;;;11.37;84.26;99662.06;5075759;28;19923;-79
2021/09/24 14:18:39;;;;;;;;;;;;;;;11.54;84.55;99661.25;5093768;28;19922;-79
2021/09/24 14:21:04;;;;;;;;;;;;;;;11.43;83.34;99659.13;5087496;28;19967;-80
2021/09/24 14:23:30;;;;;;;;;;;;;;;11.38;84.14;99659.34;5069345;28;20334;-81
2021/09/24 14:25:56;;;;;;;;;;;;;;;11.41;83.56;99658.34;5088583;28;19920;-80
2021/09/24 14:28:21;;;;;;;;;;;;;;;11.41;83.51;99650.38;5073334;28;19916;-80
2021/09/24 14:30:46;;;;;;;;;;;;;;;11.36;83.35;99647.94;5093939;28;20375;-81
2021/09/24 14:33:12;;;;;;;;;;;;;;;11.26;83.82;99647.53;5075309;28;20019;-82
2021/09/24 14:35:37;;;;;;;;;;;;;;;11.35;83.73;99642.72;5075323;28;19977;-81
2021/09/24 14:38:02;;;;;;;;;;;;;;;11.37;88.68;99644.34;5072828;28;19926;-82
2021/09/24 14:40:28;;;;;;;;;;;;;;;11.34;85.87;99639.19;5093329;28;19916;-80
2021/09/24 14:42:53;;;;;;;;;;;;;;;11.30;87.28;99644.75;5073786;28;20405;-83
2021/09/24 14:45:19;;;;;;;;;;;;;;;11.32;84.66;99643.72;5075065;28;20012;-85
2021/09/24 14:47:44;;;;;;;;;;;;;;;11.47;83.74;99633.28;5093429;28;19920;-80
2021/09/24 14:50:10;;;;;;;;;;;;;;;11.44;83.68;99640.47;5074910;28;19977;-85
2021/09/24 14:52:37;;;;;;;;;;;;;;;11.47;83.98;99633.28;5074610;28;20390;-81
2021/09/24 14:55:02;;;;;;;;;;;;;;;11.58;82.87;99636.28;5093194;28;19916;-80
2021/09/24 14:57:28;;;;;;;;;;;;;;;11.51;83.15;99633.06;5073474;28;20375;-88
2021/09/24 14:59:53;;;;;;;;;;;;;;;11.57;82.38;99638.06;5074979;28;19916;-81
2021/09/24 15:02:18;;;;;;;;;;;;;;;11.52;83.49;99644.53;5092865;28;20348;-80
2021/09/24 15:04:44;;;;;;;;;;;;;;;11.25;84.60;99632.53;5074520;28;19916;-83
2021/09/24 15:07:09;;;;;;;;;;;;;;;11.42;83.57;99639.69;5092884;28;19995;-80
2021/09/24 15:09:35;;;;;;;;;;;;;;;11.29;83.68;99638.56;5074633;28;19938;-86
2021/09/24 15:12:01;;;;;;;;;;;;;;;11.58;82.27;99618.56;5091571;28;20009;-81
2021/09/24 15:14:28;;;;;;;;;;;;;;;11.23;83.86;99629.13;5092837;28;19920;-79
2021/09/24 15:16:57;;;;;;;;;;;;;;;11.45;83.88;99623.63;5074480;28;19923;-84
2021/09/24 15:19:22;;;;;;;;;;;;;;;11.41;87.20;99632.66;5092469;28;19928;-87
2021/09/24 15:21:48;;;;;;;;;;;;;;;11.30;83.04;99634.97;5074460;28;20294;-81
2021/09/24 15:24:13;;;;;;;;;;;;;;;11.39;83.79;99633.66;5092635;28;19963;-80
2021/09/24 15:26:38;;;;;;;;;;;;;;;11.36;82.50;99629.38;5084933;28;20076;-80
2021/09/24 15:29:03;;;;;;;;;;;;;;;11.30;84.25;99627.03;5091277;28;19923;-83
2021/09/24 15:31:29;;;;;;;;;;;;;;;11.42;82.78;99637.03;5091497;28;19936;-84
2021/09/24 15:33:54;;;;;;;;;;;;;;;11.56;81.66;99631.03;5091026;28;19920;-86
2021/09/24 15:36:19;;;;;;;;;;;;;;;11.58;81.87;99623.00;5092283;28;19961;-81
2021/09/24 15:38:45;;;;;;;;;;;;;;;11.20;82.39;99628.38;5073455;28;19977;-85
2021/09/24 15:41:10;;;;;;;;;;;;;;;11.18;83.17;99630.25;5073472;28;19977;-80
2021/09/24 15:43:35;;;;;;;;;;;;;;;11.21;83.04;99622.16;5086119;28;19927;-83
2021/09/24 15:46:01;;;;;;;;;;;;;;;11.24;83.04;99619.34;5071938;28;20023;-85
2021/09/24 15:48:26;;;;;;;;;;;;;;;11.28;82.75;99626.25;5069363;28;20196;-86
2021/09/24 15:50:51;;;;;;;;;;;;;;;11.33;82.76;99623.34;5064652;28;20363;-79
2021/09/24 15:53:17;;;;;;;;;;;;;;;11.40;82.10;99614.16;5071733;28;20371;-83
2021/09/24 15:55:42;;;;;;;;;;;;;;;11.24;82.79;99619.34;5071612;28;19932;-86
2021/09/24 15:58:07;;;;;;;;;;;;;;;11.44;82.39;99618.41;5068101;28;19932;-79
2021/09/24 16:00:33;;;;;;;;;;;;;;;11.36;82.58;99618.78;5069559;28;19974;-80
2021/09/24 16:02:58;;;;;;;;;;;;;;;11.31;83.02;99614.59;5071713;28;20402;-82
2021/09/24 16:05:23;;;;;;;;;;;;;;;11.38;82.92;99619.53;5071353;28;19920;-79
2021/09/24 16:07:48;;;;;;;;;;;;;;;11.28;82.79;99615.63;5071423;28;19920;-87
2021/09/24 16:10:14;;;;;;;;;;;;;;;11.21;82.92;99615.03;5068172;28;19920;-87
2021/09/24 16:12:40;;;;;;;;;;;;;;;11.36;82.34;99616.13;5070442;28;20007;-81
2021/09/24 16:15:07;;;;;;;;;;;;;;;11.26;82.44;99617.47;5087137;28;19917;-83
2021/09/24 16:17:32;;;;;;;;;;;;;;;11.24;82.59;99617.56;5070965;28;19925;-85
2021/09/24 16:19:57;;;;;;;;;;;;;;;11.20;82.57;99617.78;5069622;28;19921;-80
2021/09/24 16:22:23;;;;;;;;;;;;;;;12.83;93.28;99620.09;5069068;28;19970;-82
2021/09/24 16:24:48;;;;;;;;;;;;;;;13.73;73.38;99609.75;5071030;28;19921;-80
2021/09/24 16:27:14;;;;;;;;;;;;;;;12.06;80.03;99624.16;5062960;28;20298;-80
2021/09/24 16:29:39;;;;;;;;;;;;;;;11.49;82.25;99611.06;5070245;28;19916;-86
2021/09/24 16:32:05;;;;;;;;;;;;;;;11.37;83.08;99609.00;5071527;28;20291;-83
2021/09/24 16:34:30;;;;;;;;;;;;;;;11.31;82.96;99615.47;5064553;28;19928;-80
2021/09/24 16:36:56;;;;;;;;;;;;;;;11.34;82.21;99623.28;5069755;28;19924;-86
2021/09/24 16:39:21;;;;;;;;;;;;;;;11.39;82.19;99623.94;5071232;28;19928;-80
2021/09/24 16:41:46;;;;;;;;;;;;;;;11.29;82.46;99612.03;5068264;28;19920;-83
2021/09/24 16:44:12;;;;;;;;;;;;;;;11.42;81.91;99615.81;5085053;28;19928;-82
2021/09/24 16:46:37;;;;;;;;;;;;;;;11.25;82.57;99615.78;5073507;28;19920;-83
2021/09/24 16:49:03;;;;;;;;;;;;;;;11.29;82.20;99606.72;5093494;28;20014;-86
2021/09/24 16:51:28;;;;;;;;;;;;;;;11.29;82.44;99609.38;5093264;28;19916;-83
2021/09/24 16:53:54;;;;;;;;;;;;;;;11.31;81.90;99609.31;5095313;28;20414;-83
2021/09/24 16:56:20;;;;;;;;;;;;;;;11.29;81.91;99609.38;5095074;28;19994;-87
2021/09/24 16:58:45;;;;;;;;;;;;;;;11.29;81.82;99612.03;5093920;28;19920;-80
2021/09/24 17:01:10;;;;;;;;;;;;;;;11.24;81.79;99608.75;5094976;28;19920;-86
2021/09/24 17:03:36;;;;;;;;;;;;;;;11.28;81.78;99610.34;5090441;28;19919;-86
2021/09/24 17:06:01;;;;;;;;;;;;;;;11.25;82.34;99607.81;5077142;28;19916;-81
2021/09/24 17:08:26;;;;;;;;;;;;;;;11.31;82.29;99610.16;5072172;28;20366;-80
2021/09/24 17:10:52;;;;;;;;;;;;;;;11.29;82.46;99608.53;5094760;28;19959;-83
2021/09/24 17:13:17;;;;;;;;;;;;;;;11.30;81.97;99611.09;5075703;28;20290;-79
2021/09/24 17:15:43;;;;;;;;;;;;;;;11.28;82.21;99607.69;5095097;28;20358;-85
2021/09/24 17:18:08;;;;;;;;;;;;;;;16.32;71.06;99594.13;5072012;28;19924;-85
2021/09/24 17:20:33;;;;;;;;;;;;;;;13.74;75.49;99611.47;5094306;28;19916;-84
2021/09/24 17:23:01;;;;;;;;;;;;;;;12.31;79.04;99612.25;5076552;28;19916;-81
2021/09/24 17:25:28;;;;;;;;;;;;;;;11.79;81.06;99615.75;5094927;28;19973;-84
2021/09/24 17:27:53;;;;;;;;;;;;;;;11.65;82.00;99611.16;5090830;28;19919;-85
2021/09/24 17:30:19;;;;;;;;;;;;;;;11.65;81.60;99613.81;5094679;28;19922;-85
2021/09/24 17:32:44;;;;;;;;;;;;;;;11.51;82.12;99614.50;5076009;28;19920;-81
2021/09/24 17:35:10;;;;;;;;;;;;;;;11.47;82.49;99614.72;5093987;28;19920;-84
2021/09/24 17:37:36;;;;;;;;;;;;;;;11.39;82.62;99615.97;5094149;28;19927;-79
2021/09/24 17:40:03;;;;;;;;;;;;;;;11.35;82.79;99626.81;5075071;28;20387;-84
2021/09/24 17:42:29;;;;;;;;;;;;;;;11.30;82.67;99627.03;5092262;28;19962;-79
2021/09/24 17:44:54;;;;;;;;;;;;;;;11.35;82.04;99637.41;5089233;28;19963;-83
2021/09/24 17:47:20;;;;;;;;;;;;;;;11.29;82.41;99638.56;5094349;28;19935;-86
2021/09/24 17:49:45;;;;;;;;;;;;;;;11.32;81.69;99635.75;5094024;28;20390;-79
2021/09/24 17:52:10;;;;;;;;;;;;;;;11.39;81.92;99634.53;5093431;28;19967;-85
2021/09/24 17:54:35;;;;;;;;;;;;;;;11.26;81.98;99628.97;5094215;28;20391;-87
2021/09/24 17:57:02;;;;;;;;;;;;;;;11.33;81.79;99636.59;5093095;28;19920;-86
2021/09/24 17:59:27;;;;;;;;;;;;;;;11.36;82.09;99642.66;5074802;28;19924;-79
2021/09/24 18:01:53;;;;;;;;;;;;;;;11.29;82.15;99638.56;5093199;28;19924;-87
2021/09/24 18:04:18;;;;;;;;;;;;;;;11.21;82.56;99635.41;5093420;28;19924;-85
2021/09/24 18:06:43;;;;;;;;;;;;;;;11.28;82.09;99642.16;5093888;28;19916;-79
2021/09/24 18:09:08;;;;;;;;;;;;;;;11.22;82.76;99643.31;5093663;28;19939;-80
2021/09/24 18:11:34;;;;;;;;;;;;;;;11.48;81.89;99641.19;5074114;28;20278;-87
2021/09/24 18:13:59;;;;;;;;;;;;;;;11.26;82.29;99642.22;5093889;28;20006;-79
2021/09/24 18:16:25;;;;;;;;;;;;;;;11.25;81.78;99643.16;5075455;28;20011;-86
2021/09/24 18:18:50;;;;;;;;;;;;;;;11.16;82.67;99642.75;5075398;28;20297;-85
2021/09/24 18:21:15;;;;;;;;;;;;;;;11.15;82.71;99651.63;5085714;28;19927;-79
2021/09/24 18:23:41;;;;;;;;;;;;;;;11.16;82.74;99650.69;5088601;28;19973;-82
2021/09/24 18:26:07;;;;;;;;;;;;;;;11.14;82.84;99655.22;5092947;28;19924;-80
2021/09/24 18:28:32;;;;;;;;;;;;;;;15.29;93.44;99650.88;5090734;28;21394;-84
2021/09/24 18:30:58;;;;;;;;;;;;;;;12.96;75.48;99656.66;5074927;28;20334;-81
2021/09/24 18:33:23;;;;;;;;;;;;;;;11.65;81.23;99672.19;5093591;28;19924;-80
2021/09/24 18:35:48;;;;;;;;;;;;;;;11.33;83.06;99664.00;5075132;28;19942;-84
2021/09/24 18:38:14;;;;;;;;;;;;;;;11.17;83.34;99666.53;5075191;28;19927;-82
2021/09/24 18:40:39;;;;;;;;;;;;;;;11.21;83.03;99673.41;5093476;28;20442;-85
2021/09/24 18:43:08;;;;;;;;;;;;;;;11.20;83.16;99668.16;5087326;28;19993;-82
2021/09/24 18:45:34;;;;;;;;;;;;;;;11.12;83.15;99672.97;5072699;28;19928;-88
2021/09/24 18:47:59;;;;;;;;;;;;;;;11.17;83.50;99671.84;5065350;28;19920;-87
2021/09/24 18:50:25;;;;;;;;;;;;;;;11.17;83.25;99677.13;5071452;28;20295;-86
2021/09/24 18:52:50;;;;;;;;;;;;;;;11.21;83.11;99677.84;5071794;28;19962;-86
2021/09/24 18:55:15;;;;;;;;;;;;;;;11.07;82.96;99682.03;5071821;28;19917;-79
2021/09/24 18:57:41;;;;;;;;;;;;;;;11.06;83.35;99674.97;5071543;28;20386;-84
2021/09/24 19:00:08;;;;;;;;;;;;;;;11.12;83.01;99686.22;5072451;28;19968;-88
2021/09/24 19:02:33;;;;;;;;;;;;;;;11.08;83.16;99689.03;5071721;28;19921;-82